Time;durP1;ratioP1;P1;durP2;ratioP2;P2;SDS_P1;SDS_P2;PMS_P1;PMS_P2;Temp;Humidity;BMP_temperature;BMP_pressure;BME280_temperature;BME280_humidity;BME280_pressure;Samples;Min_cycle;Max_cycle;Signal;HPM_P1;HPM_P2
2023/09/30 00:01:11;;;;;;;12.65;4.68;;;;;;;22.82;100.00;102105.47;4950689;29;20047;-42
2023/09/30 00:03:38;;;;;;;9.82;4.15;;;;;;;22.80;100.00;102107.97;4952725;29;20081;-41
2023/09/30 00:06:05;;;;;;;13.45;4.90;;;;;;;22.81;100.00;102103.09;4948022;29;20813;-41
2023/09/30 00:08:32;;;;;;;11.38;4.35;;;;;;;22.82;100.00;102094.13;4947347;29;20548;-40
2023/09/30 00:10:58;;;;;;;12.27;4.45;;;;;;;22.83;100.00;102109.06;4951276;29;20053;-40
2023/09/30 00:13:25;;;;;;;12.20;4.90;;;;;;;22.82;100.00;102104.66;4951077;28;20166;-41
2023/09/30 00:15:51;;;;;;;10.95;4.47;;;;;;;22.85;100.00;102106.56;4946694;28;20066;-42
2023/09/30 00:18:18;;;;;;;10.68;4.03;;;;;;;22.85;100.00;102115.06;4931864;28;20130;-41
2023/09/30 00:20:44;;;;;;;10.15;4.80;;;;;;;22.83;100.00;102117.56;4951933;28;20117;-43
2023/09/30 00:23:11;;;;;;;10.65;4.10;;;;;;;22.81;100.00;102117.25;4948036;28;20071;-44
2023/09/30 00:25:39;;;;;;;10.88;4.18;;;;;;;22.83;100.00;102118.38;4941988;29;20075;-44
2023/09/30 00:28:05;;;;;;;8.93;3.97;;;;;;;22.82;100.00;102116.00;4950000;29;20098;-42
2023/09/30 00:30:32;;;;;;;12.02;4.22;;;;;;;22.82;100.00;102110.31;4938249;29;20055;-39
2023/09/30 00:32:59;;;;;;;13.63;4.50;;;;;;;22.80;100.00;102107.97;4948509;28;20046;-39
2023/09/30 00:35:25;;;;;;;10.82;4.30;;;;;;;22.82;100.00;102105.47;4944527;29;20086;-42
2023/09/30 00:37:53;;;;;;;9.73;4.28;;;;;;;22.85;100.00;102100.88;4945378;29;20051;-40
2023/09/30 00:40:19;;;;;;;11.10;4.25;;;;;;;22.79;100.00;102099.91;4944207;29;20085;-43
2023/09/30 00:42:46;;;;;;;9.60;4.10;;;;;;;22.80;100.00;102104.31;4951645;28;20075;-40
2023/09/30 00:45:13;;;;;;;11.70;4.63;;;;;;;22.78;100.00;102116.13;4940840;29;20047;-40
2023/09/30 00:47:40;;;;;;;11.25;4.10;;;;;;;22.84;100.00;102119.13;4933956;28;20047;-41
2023/09/30 00:50:08;;;;;;;13.18;4.47;;;;;;;22.83;100.00;102123.25;4945072;29;20062;-42
2023/09/30 00:52:36;;;;;;;11.75;3.80;;;;;;;22.85;100.00;102109.38;4926344;29;20052;-43
2023/09/30 00:55:03;;;;;;;9.93;4.15;;;;;;;22.81;100.00;102098.19;4941674;29;20055;-41
2023/09/30 00:57:30;;;;;;;11.95;4.10;;;;;;;22.82;100.00;102090.47;4941400;29;20054;-45
2023/09/30 00:59:57;;;;;;;9.10;3.90;;;;;;;22.81;100.00;102103.09;4937544;28;20082;-42
2023/09/30 01:02:24;;;;;;;10.85;4.03;;;;;;;22.82;100.00;102118.84;4936916;28;20094;-41
2023/09/30 01:04:51;;;;;;;10.65;4.10;;;;;;;22.80;100.00;102124.97;4937718;28;20051;-42
2023/09/30 01:07:21;;;;;;;11.18;4.32;;;;;;;22.77;100.00;102114.56;4946043;29;20086;-40
2023/09/30 01:09:48;;;;;;;12.32;4.05;;;;;;;22.79;100.00;102125.44;4947651;29;20051;-41
2023/09/30 01:12:15;;;;;;;10.35;4.10;;;;;;;22.79;100.00;102122.59;4939709;29;20501;-42
2023/09/30 01:14:42;;;;;;;11.35;4.22;;;;;;;22.78;100.00;102116.13;4940780;28;20048;-40
2023/09/30 01:17:11;;;;;;;12.00;4.68;;;;;;;22.79;100.00;102122.59;4936786;28;20047;-40
2023/09/30 01:19:38;;;;;;;12.43;3.92;;;;;;;22.76;100.00;102123.53;4935674;29;20568;-41
2023/09/30 01:22:05;;;;;;;12.02;3.90;;;;;;;22.75;100.00;102111.41;4945545;29;20078;-42
2023/09/30 01:24:40;;;;;;;10.07;3.90;;;;;;;22.79;100.00;102112.06;4937840;28;20462;-40
2023/09/30 01:27:07;;;;;;;9.85;4.15;;;;;;;22.76;100.00;102104.50;4933824;29;20054;-41
2023/09/30 01:29:34;;;;;;;13.45;5.35;;;;;;;22.75;100.00;102113.47;4949681;29;20054;-40
2023/09/30 01:32:01;;;;;;;10.80;4.03;;;;;;;22.78;100.00;102115.38;4941985;28;20062;-40
2023/09/30 01:34:27;;;;;;;8.13;3.58;;;;;;;22.79;100.00;102109.22;4936588;29;20122;-41
2023/09/30 01:36:54;;;;;;;9.02;3.55;;;;;;;22.77;100.00;102110.94;4942815;29;20075;-40
2023/09/30 01:39:20;;;;;;;9.27;3.80;;;;;;;22.77;100.00;102108.09;4943437;29;20138;-41
2023/09/30 01:41:47;;;;;;;13.02;4.50;;;;;;;22.81;100.00;102125.78;4942302;29;20078;-40
2023/09/30 01:44:14;;;;;;;10.55;4.03;;;;;;;22.77;100.00;102130.78;4950586;29;20047;-44
2023/09/30 01:46:40;;;;;;;12.25;3.75;;;;;;;22.77;100.00;102130.78;4942470;28;20056;-43
2023/09/30 01:49:07;;;;;;;11.82;4.25;;;;;;;22.80;100.00;102144.03;4939789;29;20450;-40
2023/09/30 01:51:34;;;;;;;9.40;3.83;;;;;;;22.77;100.00;102150.63;4944306;29;20783;-42
2023/09/30 01:54:00;;;;;;;9.40;3.90;;;;;;;22.79;100.00;102145.28;4946714;29;20051;-43
2023/09/30 01:56:27;;;;;;;9.63;3.97;;;;;;;22.80;100.00;102127.00;4935861;29;20058;-41
2023/09/30 01:58:53;;;;;;;10.18;3.85;;;;;;;22.79;100.00;102129.06;4942878;29;20062;-40
2023/09/30 02:01:21;;;;;;;12.93;4.68;;;;;;;22.89;100.00;102125.00;4936415;28;20590;-42
2023/09/30 02:03:47;;;;;;;11.57;4.28;;;;;;;22.87;100.00;102135.22;4938392;29;20053;-39
2023/09/30 02:06:14;;;;;;;10.82;4.43;;;;;;;22.85;100.00;102144.19;4938156;29;20075;-40
2023/09/30 02:08:41;;;;;;;10.27;3.70;;;;;;;22.83;100.00;102157.25;4945567;29;20425;-45
2023/09/30 02:11:08;;;;;;;8.02;3.40;;;;;;;22.84;100.00;102151.13;4942012;29;20048;-40
2023/09/30 02:13:35;;;;;;;7.53;3.55;;;;;;;22.82;100.00;102155.69;4944381;28;20079;-41
2023/09/30 02:16:01;;;;;;;9.10;3.55;;;;;;;22.78;100.00;102155.81;4946341;29;20589;-39
2023/09/30 02:18:28;;;;;;;10.68;4.53;;;;;;;22.76;100.00;102164.03;4954410;29;20134;-40
2023/09/30 02:20:55;;;;;;;11.52;3.40;;;;;;;22.75;100.00;102161.66;4950303;29;20157;-41
2023/09/30 02:23:22;;;;;;;12.18;4.00;;;;;;;22.75;100.00;102153.16;4947846;29;20094;-42
2023/09/30 02:25:49;;;;;;;8.73;3.45;;;;;;;22.74;100.00;102146.69;4929332;29;20714;-40
2023/09/30 02:28:15;;;;;;;10.70;3.60;;;;;;;22.73;100.00;102147.16;4947528;29;20105;-42
2023/09/30 02:30:42;;;;;;;10.23;3.60;;;;;;;22.74;100.00;102143.84;4945646;28;20043;-40
2023/09/30 02:33:09;;;;;;;10.60;3.60;;;;;;;22.71;100.00;102130.59;4945059;29;20047;-39
2023/09/30 02:35:38;;;;;;;10.20;3.90;;;;;;;22.73;100.00;102135.81;4953685;29;20055;-44
2023/09/30 02:38:06;;;;;;;9.30;3.58;;;;;;;22.72;100.00;102131.41;4952688;29;20055;-40
2023/09/30 02:40:33;;;;;;;11.68;4.07;;;;;;;22.71;100.00;102121.34;4947078;29;20414;-40
2023/09/30 02:43:00;;;;;;;9.02;3.33;;;;;;;22.68;100.00;102125.88;4951749;29;20170;-41
2023/09/30 02:45:26;;;;;;;9.15;3.00;;;;;;;22.72;100.00;102120.88;4945524;28;20158;-40
2023/09/30 02:47:53;;;;;;;8.02;3.40;;;;;;;22.72;100.00;102118.03;4937608;29;20043;-40
2023/09/30 02:50:21;;;;;;;8.85;3.28;;;;;;;22.71;100.00;102132.69;4945743;29;20055;-41
2023/09/30 02:52:47;;;;;;;7.57;3.40;;;;;;;22.70;100.00;102131.06;4952171;28;20074;-38
2023/09/30 02:55:14;;;;;;;9.10;3.72;;;;;;;22.69;100.00;102135.19;4941750;29;20138;-42
2023/09/30 02:57:42;;;;;;;10.20;3.50;;;;;;;22.70;100.00;102140.38;4941539;29;20043;-42
2023/09/30 03:00:32;;;;;;;10.05;3.58;;;;;;;22.69;100.00;102152.19;4943431;29;20584;-39
2023/09/30 03:03:03;;;;;;;10.20;3.42;;;;;;;22.68;100.00;102159.88;4938183;28;20066;-40
2023/09/30 03:05:33;;;;;;;7.97;3.30;;;;;;;22.65;100.00;102158.00;4937817;28;20579;-40
2023/09/30 03:08:01;;;;;;;9.50;3.17;;;;;;;22.64;100.00;102153.59;4936100;29;20055;-45
2023/09/30 03:10:27;;;;;;;9.23;3.45;;;;;;;22.65;100.00;102154.38;4951952;29;20115;-40
2023/09/30 03:12:54;;;;;;;10.52;3.33;;;;;;;22.64;100.00;102150.75;4951423;29;20146;-38
2023/09/30 03:15:21;;;;;;;9.68;3.42;;;;;;;22.66;100.00;102150.28;4948622;28;20150;-43
2023/09/30 03:17:48;;;;;;;8.88;3.45;;;;;;;22.64;100.00;102138.63;4945141;29;20191;-40
2023/09/30 03:20:20;;;;;;;8.30;3.40;;;;;;;22.65;100.00;102135.34;4933681;29;20075;-38
2023/09/30 03:22:48;;;;;;;9.27;3.42;;;;;;;22.65;100.00;102132.50;4943263;28;20047;-42
2023/09/30 03:25:17;;;;;;;7.72;3.15;;;;;;;22.64;100.00;102138.63;4943887;29;20043;-42
2023/09/30 03:27:46;;;;;;;9.15;3.15;;;;;;;22.63;100.00;102140.66;4946557;29;20114;-41
2023/09/30 03:30:16;;;;;;;10.10;3.85;;;;;;;22.63;100.00;102137.84;4950009;29;20138;-38
2023/09/30 03:32:43;;;;;;;10.45;3.40;;;;;;;22.61;100.00;102139.56;4940009;29;20063;-38
2023/09/30 03:35:14;;;;;;;9.73;3.70;;;;;;;22.60;100.00;102137.97;4934861;29;20059;-40
2023/09/30 03:37:41;;;;;;;11.85;3.75;;;;;;;22.60;100.00;102132.31;4951877;29;20050;-39
2023/09/30 03:40:44;;;;;;;9.98;3.45;;;;;;;22.61;100.00;102137.50;4951240;29;20087;-40
2023/09/30 03:43:01;;;;;;;12.07;4.18;;;;;;;22.58;100.00;102132.78;4949008;29;20119;-40
2023/09/30 03:45:27;;;;;;;11.02;3.50;;;;;;;22.59;100.00;102144.91;4950721;28;20043;-40
2023/09/30 03:47:54;;;;;;;8.65;3.45;;;;;;;22.58;100.00;102134.84;4950640;28;20075;-40
2023/09/30 03:50:23;;;;;;;7.90;3.45;;;;;;;22.60;100.00;102126.63;4949574;29;20070;-43
2023/09/30 03:52:50;;;;;;;9.38;3.30;;;;;;;22.60;100.00;102126.63;4909059;28;1078031;-41
2023/09/30 03:55:20;;;;;;;10.45;3.33;;;;;;;22.57;100.00;102131.19;4947118;29;20074;-40
2023/09/30 03:57:49;;;;;;;8.23;3.28;;;;;;;22.57;100.00;102128.38;4950547;29;20055;-39
2023/09/30 04:00:18;;;;;;;9.30;3.55;;;;;;;22.57;100.00;102134.03;4952024;29;20564;-40
2023/09/30 04:02:49;;;;;;;10.77;3.28;;;;;;;22.59;100.00;102131.53;4951715;29;20134;-39
2023/09/30 04:05:16;;;;;;;8.05;3.05;;;;;;;22.57;100.00;102128.38;4950146;28;20058;-40
2023/09/30 04:07:43;;;;;;;11.55;3.75;;;;;;;22.56;100.00;102137.34;4948061;28;20051;-39
2023/09/30 04:10:10;;;;;;;5.70;2.72;;;;;;;22.56;100.00;102128.81;4951193;29;20058;-40
2023/09/30 04:12:36;;;;;;;11.05;3.50;;;;;;;22.57;100.00;102136.88;4950682;29;20082;-42
2023/09/30 04:15:03;;;;;;;9.40;3.40;;;;;;;22.57;100.00;102133.22;4952283;29;20284;-40
2023/09/30 04:17:30;;;;;;;9.40;3.67;;;;;;;22.57;100.00;102127.56;4950693;29;20427;-42
2023/09/30 04:19:57;;;;;;;6.28;2.83;;;;;;;22.57;100.00;102124.72;4948663;29;20055;-41
2023/09/30 04:22:25;;;;;;;8.75;3.30;;;;;;;22.53;100.00;102130.56;4950222;28;20580;-39
2023/09/30 04:24:52;;;;;;;7.18;3.08;;;;;;;22.55;100.00;102121.59;4949182;28;20146;-41
2023/09/30 04:27:21;;;;;;;7.25;3.13;;;;;;;22.56;100.00;102120.31;4946001;29;20051;-41
2023/09/30 04:29:49;;;;;;;9.70;3.60;;;;;;;22.55;100.00;102130.91;4947680;28;20055;-42
2023/09/30 04:32:16;;;;;;;7.47;3.13;;;;;;;22.54;100.00;102137.03;4950311;28;20106;-40
2023/09/30 04:34:43;;;;;;;9.07;3.45;;;;;;;22.54;100.00;102142.69;4948323;28;20043;-40
2023/09/30 04:37:13;;;;;;;12.65;3.42;;;;;;;22.56;100.00;102157.16;4950989;28;20066;-39
2023/09/30 04:39:40;;;;;;;9.13;3.28;;;;;;;22.55;100.00;102149.94;4948778;29;20059;-40
2023/09/30 04:42:10;;;;;;;10.38;3.28;;;;;;;22.56;100.00;102154.34;4950049;28;20051;-39
2023/09/30 04:44:38;;;;;;;6.78;2.97;;;;;;;22.51;100.00;102169.13;4950893;29;20106;-41
2023/09/30 04:47:05;;;;;;;6.43;3.10;;;;;;;22.53;100.00;102164.56;4948382;28;20052;-42
2023/09/30 04:49:31;;;;;;;8.23;3.05;;;;;;;22.57;100.00;102161.56;4947379;29;20122;-39
2023/09/30 04:51:58;;;;;;;7.15;3.10;;;;;;;22.62;100.00;102160.97;4950166;29;20055;-39
2023/09/30 04:54:25;;;;;;;8.30;2.90;;;;;;;22.62;100.00;102160.97;4951337;29;20502;-40
2023/09/30 04:56:51;;;;;;;6.97;2.47;;;;;;;22.60;100.00;102160.66;4949421;29;20067;-37
2023/09/30 04:59:18;;;;;;;7.50;2.60;;;;;;;22.54;100.00;102168.19;4942457;29;20107;-42
2023/09/30 05:01:45;;;;;;;8.15;3.45;;;;;;;22.56;100.00;102171.34;4949326;28;20051;-41
2023/09/30 05:04:11;;;;;;;8.35;3.42;;;;;;;22.56;100.00;102171.34;4948742;28;20047;-39
2023/09/30 05:06:38;;;;;;;7.85;3.20;;;;;;;22.54;100.00;102179.53;4950069;29;20537;-39
2023/09/30 05:09:05;;;;;;;9.77;2.90;;;;;;;22.54;100.00;102174.63;4947344;28;20122;-43
2023/09/30 05:11:31;;;;;;;7.50;2.95;;;;;;;22.52;100.00;102167.88;4949287;29;20079;-38
2023/09/30 05:13:57;;;;;;;8.57;3.05;;;;;;;22.53;100.00;102166.59;4949485;28;20391;-42
2023/09/30 05:16:26;;;;;;;9.35;3.10;;;;;;;22.54;100.00;102179.53;4948927;29;20632;-40
2023/09/30 05:18:53;;;;;;;10.10;3.22;;;;;;;22.54;100.00;102185.22;4949477;29;20561;-39
2023/09/30 05:21:21;;;;;;;9.88;3.30;;;;;;;22.54;100.00;102185.22;4945441;28;20548;-40
2023/09/30 05:23:48;;;;;;;7.47;3.17;;;;;;;22.51;100.00;102186.13;4941261;29;20048;-39
2023/09/30 05:26:15;;;;;;;7.13;3.15;;;;;;;22.52;100.00;102184.88;4939007;29;20150;-41
2023/09/30 05:28:42;;;;;;;9.52;3.20;;;;;;;22.51;100.00;102186.13;4950017;29;20494;-40
2023/09/30 05:31:09;;;;;;;8.13;2.80;;;;;;;22.52;100.00;102187.72;4948895;29;20125;-41
2023/09/30 05:33:36;;;;;;;8.15;3.20;;;;;;;22.52;100.00;102184.88;4949828;28;20047;-40
2023/09/30 05:36:03;;;;;;;7.78;2.90;;;;;;;22.53;100.00;102192.09;4949168;29;20057;-40
2023/09/30 05:38:31;;;;;;;7.43;3.00;;;;;;;22.54;100.00;102191.66;4946399;28;20115;-40
2023/09/30 05:41:01;;;;;;;8.55;3.25;;;;;;;22.56;100.00;102188.34;4945697;29;20070;-42
2023/09/30 05:43:28;;;;;;;7.13;2.72;;;;;;;22.51;100.00;102192.56;4949246;29;20051;-41
2023/09/30 05:45:54;;;;;;;9.00;3.17;;;;;;;22.50;100.00;102187.38;4949349;28;20059;-39
2023/09/30 05:48:24;;;;;;;10.32;3.33;;;;;;;22.50;100.00;102191.00;4946403;29;20055;-40
2023/09/30 05:50:51;;;;;;;6.80;2.97;;;;;;;22.48;100.00;102189.91;4947241;28;20514;-38
2023/09/30 05:53:17;;;;;;;8.57;3.00;;;;;;;22.48;100.00;102185.00;4947247;28;20157;-38
2023/09/30 05:55:45;;;;;;;6.75;2.80;;;;;;;22.51;100.00;102191.81;4950738;29;20055;-40
2023/09/30 05:58:16;;;;;;;8.75;2.88;;;;;;;22.48;100.00;102192.72;4948499;29;20102;-41
2023/09/30 06:00:43;;;;;;;7.03;2.90;;;;;;;22.52;100.00;102182.84;4940398;29;20098;-40
2023/09/30 06:03:10;;;;;;;8.13;3.10;;;;;;;22.59;100.00;102182.56;4938691;28;20047;-39
2023/09/30 06:05:41;;;;;;;9.30;3.38;;;;;;;22.58;100.00;102185.84;4943798;28;20051;-39
2023/09/30 06:08:13;;;;;;;11.90;3.05;;;;;;;22.55;100.00;102193.25;4943397;28;20078;-39
2023/09/30 06:10:43;;;;;;;6.88;2.97;;;;;;;22.59;100.00;102182.56;4947648;29;20061;-39
2023/09/30 06:13:10;;;;;;;10.90;3.30;;;;;;;22.59;100.00;102185.38;4947345;29;20082;-41
2023/09/30 06:15:41;;;;;;;6.47;2.72;;;;;;;22.60;100.00;102186.16;4949562;29;20429;-38
2023/09/30 06:18:13;;;;;;;6.68;2.70;;;;;;;22.61;100.00;102196.25;4937381;29;20073;-37
2023/09/30 06:20:41;;;;;;;8.43;3.30;;;;;;;22.58;100.00;102191.53;4945190;29;20079;-39
2023/09/30 06:23:08;;;;;;;7.90;2.80;;;;;;;22.59;100.00;102199.56;4944159;29;20585;-38
2023/09/30 06:25:35;;;;;;;8.60;2.92;;;;;;;22.58;100.00;102195.13;4940193;28;20055;-39
2023/09/30 06:28:03;;;;;;;7.70;3.30;;;;;;;22.57;100.00;102198.41;4942356;29;20052;-38
2023/09/30 06:30:29;;;;;;;11.30;2.63;;;;;;;22.58;100.00;102206.47;4940724;29;20502;-40
2023/09/30 06:33:00;;;;;;;10.02;2.92;;;;;;;22.59;100.00;102207.25;4936544;29;20111;-41
2023/09/30 06:35:30;;;;;;;8.82;3.45;;;;;;;22.55;100.00;102204.59;4918117;29;20051;-39
2023/09/30 06:37:56;;;;;;;9.18;2.95;;;;;;;22.53;100.00;102194.94;4943445;29;20520;-38
2023/09/30 06:40:23;;;;;;;7.18;2.80;;;;;;;22.58;100.00;102197.97;4923086;29;20134;-41
2023/09/30 06:42:50;;;;;;;7.85;2.67;;;;;;;22.57;100.00;102209.75;4948644;29;20055;-39
2023/09/30 06:45:17;;;;;;;5.88;2.40;;;;;;;22.57;100.00;102210.56;4940439;28;20043;-38
2023/09/30 06:47:45;;;;;;;7.50;2.67;;;;;;;22.61;100.00;102216.09;4943221;28;20051;-40
2023/09/30 06:50:16;;;;;;;7.75;2.60;;;;;;;22.64;100.00;102212.34;4947323;29;20087;-40
2023/09/30 06:52:49;;;;;;;6.20;2.50;;;;;;;22.68;100.00;102216.59;4947370;28;20059;-38
2023/09/30 06:55:16;;;;;;;14.88;3.10;;;;;;;22.64;100.00;102218.78;4944454;29;20054;-39
2023/09/30 06:57:43;;;;;;;8.98;3.33;;;;;;;22.64;100.00;102229.34;4948239;28;20043;-40
2023/09/30 07:00:12;;;;;;;8.55;3.63;;;;;;;22.62;100.00;102231.84;4950157;28;20062;-40
2023/09/30 07:02:40;;;;;;;11.07;2.72;;;;;;;22.65;100.00;102225.25;4950675;29;20108;-38
2023/09/30 07:05:10;;;;;;;10.27;2.72;;;;;;;22.64;100.00;102220.84;4947313;29;20058;-38
2023/09/30 07:07:39;;;;;;;15.27;3.40;;;;;;;22.66;100.00;102226.81;4945079;29;20417;-39
2023/09/30 07:10:06;;;;;;;12.15;2.95;;;;;;;22.62;100.00;102238.31;4946999;29;20150;-40
2023/09/30 07:12:35;;;;;;;14.60;3.38;;;;;;;22.59;100.00;102236.41;4947562;28;20059;-39
2023/09/30 07:15:04;;;;;;;12.05;3.55;;;;;;;22.62;100.00;102243.19;4948071;29;20154;-39
2023/09/30 07:17:32;;;;;;;15.82;3.95;;;;;;;22.58;100.00;102248.22;4947640;29;20051;-39
2023/09/30 07:19:59;;;;;;;13.98;4.72;;;;;;;22.45;100.00;102244.66;4951190;29;20718;-39
2023/09/30 07:22:26;;;;;;;14.07;4.88;;;;;;;22.43;100.00;102252.84;4948224;28;20398;-39
2023/09/30 07:25:13;;;;;;;13.90;4.50;;;;;;;22.48;100.00;102255.84;4950532;29;20051;-38
2023/09/30 07:27:40;;;;;;;18.15;4.32;;;;;;;22.50;100.00;102259.03;4949337;29;20528;-40
2023/09/30 07:30:07;;;;;;;17.23;4.00;;;;;;;22.51;100.00;102254.94;4945321;28;20054;-40
2023/09/30 07:32:34;;;;;;;13.23;3.63;;;;;;;22.52;100.00;102267.06;4947655;29;20106;-39
2023/09/30 07:35:01;;;;;;;12.25;3.65;;;;;;;22.52;100.00;102284.06;4949038;29;20106;-39
2023/09/30 07:37:28;;;;;;;14.48;3.92;;;;;;;22.52;100.00;102281.22;4943134;29;20071;-40
2023/09/30 07:39:55;;;;;;;13.95;4.00;;;;;;;22.54;100.00;102285.19;4946670;29;20082;-39
2023/09/30 07:42:22;;;;;;;13.95;4.05;;;;;;;22.55;100.00;102283.94;4943909;29;20417;-39
2023/09/30 07:44:49;;;;;;;12.18;3.83;;;;;;;22.53;100.00;102286.44;4952204;29;20043;-38
2023/09/30 07:47:15;;;;;;;11.95;3.70;;;;;;;22.52;100.00;102290.53;4950031;29;20145;-41
2023/09/30 07:49:42;;;;;;;14.70;4.28;;;;;;;22.55;100.00;102295.28;4950627;28;20469;-39
2023/09/30 07:52:08;;;;;;;15.70;5.10;;;;;;;22.54;100.00;102295.75;4950240;29;20052;-39
2023/09/30 07:54:35;;;;;;;16.58;4.07;;;;;;;22.52;100.00;102296.22;4946328;29;20157;-38
2023/09/30 07:57:02;;;;;;;17.33;4.43;;;;;;;22.51;100.00;102288.16;4948915;28;20062;-41
2023/09/30 07:59:28;;;;;;;16.35;4.80;;;;;;;22.48;100.00;102301.19;4933535;29;20055;-39
2023/09/30 08:01:57;;;;;;;15.98;4.43;;;;;;;22.48;100.00;102300.44;4950369;29;20059;-40
2023/09/30 08:04:23;;;;;;;21.55;4.60;;;;;;;22.48;100.00;102301.19;4951814;29;20131;-38
2023/09/30 08:06:53;;;;;;;13.95;4.25;;;;;;;22.47;100.00;102296.78;4950746;29;20058;-41
2023/09/30 08:09:21;;;;;;;15.27;4.38;;;;;;;22.48;100.00;102303.25;4950558;28;20087;-42
2023/09/30 08:11:48;;;;;;;17.33;4.72;;;;;;;22.49;100.00;102302.00;4941367;28;20455;-41
2023/09/30 08:14:15;;;;;;;15.68;4.05;;;;;;;22.47;100.00;102305.28;4950622;29;20166;-40
2023/09/30 08:16:42;;;;;;;11.95;3.70;;;;;;;22.47;100.00;102301.69;4945726;28;20051;-39
2023/09/30 08:19:09;;;;;;;14.10;3.78;;;;;;;22.45;100.00;102301.34;4949190;29;20862;-40
2023/09/30 08:21:36;;;;;;;14.43;4.10;;;;;;;22.48;100.00;102300.44;4949229;28;20158;-38
2023/09/30 08:24:03;;;;;;;11.77;4.18;;;;;;;22.45;100.00;102307.00;4949357;28;20058;-41
2023/09/30 08:26:30;;;;;;;14.60;3.78;;;;;;;22.48;100.00;102312.53;4949352;29;20051;-41
2023/09/30 08:28:56;;;;;;;18.77;4.72;;;;;;;22.46;100.00;102312.22;4942606;28;20062;-38
2023/09/30 08:31:24;;;;;;;14.50;5.15;;;;;;;22.43;100.00;102313.16;4945406;29;20490;-38
2023/09/30 08:33:50;;;;;;;15.25;5.05;;;;;;;22.36;100.00;102309.78;4950973;29;20059;-39
2023/09/30 08:36:17;;;;;;;18.63;6.25;;;;;;;22.29;100.00;102312.84;4940624;28;20054;-40
2023/09/30 08:38:44;;;;;;;18.23;6.20;;;;;;;22.23;100.00;102326.00;4934737;29;20399;-40
2023/09/30 08:41:24;;;;;;;19.27;6.53;;;;;;;22.13;100.00;102320.28;4949379;29;20083;-39
2023/09/30 08:43:51;;;;;;;16.40;5.63;;;;;;;22.17;100.00;102318.13;4940758;28;20490;-40
2023/09/30 08:46:18;;;;;;;19.23;6.22;;;;;;;22.08;100.00;102312.38;4949154;28;20047;-42
2023/09/30 08:48:46;;;;;;;19.35;5.90;;;;;;;22.16;100.00;102310.06;4945162;28;20089;-40
2023/09/30 08:51:12;;;;;;;17.20;5.40;;;;;;;22.17;100.00;102312.44;4949895;28;20050;-39
2023/09/30 08:53:40;;;;;;;20.38;6.18;;;;;;;22.22;100.00;102310.28;4947555;29;20079;-39
2023/09/30 08:56:10;;;;;;;18.55;5.68;;;;;;;22.24;100.00;102308.56;4949110;28;20055;-39
2023/09/30 08:58:37;;;;;;;19.83;6.43;;;;;;;22.29;100.00;102310.00;4950969;29;20051;-38
2023/09/30 09:01:03;;;;;;;15.05;4.63;;;;;;;22.33;100.00;102310.69;4948807;29;20501;-40
2023/09/30 09:03:31;;;;;;;19.70;6.07;;;;;;;22.35;100.00;102302.53;4951266;29;20043;-41
2023/09/30 09:06:00;;;;;;;14.45;4.28;;;;;;;22.35;100.00;102302.53;4950078;28;20055;-42
2023/09/30 09:08:26;;;;;;;20.30;4.22;;;;;;;22.31;100.00;102296.22;4950217;28;20051;-39
2023/09/30 09:10:59;;;;;;;16.38;5.38;;;;;;;22.34;100.00;102292.47;4948020;29;20051;-38
2023/09/30 09:13:26;;;;;;;21.23;5.63;;;;;;;22.37;100.00;102291.53;4945688;29;20093;-39
2023/09/30 09:16:09;;;;;;;17.90;4.32;;;;;;;22.34;100.00;102286.78;4943450;28;20066;-38
2023/09/30 09:18:36;;;;;;;21.05;5.25;;;;;;;22.32;100.00;102284.44;4939903;28;20055;-39
2023/09/30 09:21:11;;;;;;;14.23;4.75;;;;;;;22.33;100.00;102285.19;4939490;29;20062;-39
2023/09/30 09:23:46;;;;;;;15.75;4.70;;;;;;;22.30;100.00;102283.28;4945552;29;20106;-38
2023/09/30 09:26:25;;;;;;;16.90;4.47;;;;;;;22.27;100.00;102284.97;4935260;29;20565;-39
2023/09/30 09:29:00;;;;;;;12.70;4.03;;;;;;;22.26;100.00;102293.94;4938266;29;20047;-38
2023/09/30 09:31:28;;;;;;;;;;;;;;;22.32;100.00;102292.13;4942458;28;20082;-39
2023/09/30 09:33:55;;;;;;;14.40;4.20;;;;;;;22.32;100.00;102292.91;4949638;28;20788;-42
2023/09/30 09:36:39;;;;;;;13.27;4.00;;;;;;;22.29;100.00;102295.84;4942137;29;20134;-46
2023/09/30 09:39:06;;;;;;;15.05;4.07;;;;;;;22.22;100.00;102288.41;4938837;29;20051;-46
2023/09/30 09:41:49;;;;;;;17.95;4.45;;;;;;;22.17;100.00;102278.47;4940900;29;20074;-47
2023/09/30 09:44:17;;;;;;;12.90;3.80;;;;;;;22.21;100.00;102283.19;4948061;29;20089;-45
2023/09/30 09:46:45;;;;;;;18.15;4.57;;;;;;;22.22;100.00;102281.94;4924898;29;20126;-46
2023/09/30 09:49:12;;;;;;;15.57;3.90;;;;;;;22.17;100.00;102279.72;4948257;28;20051;-47
2023/09/30 09:51:39;;;;;;;13.40;4.25;;;;;;;22.22;100.00;102279.91;4940760;28;20052;-45
2023/09/30 09:54:07;;;;;;;14.65;4.30;;;;;;;22.26;100.00;102279.75;4943696;29;20514;-46
2023/09/30 09:56:36;;;;;;;12.32;3.80;;;;;;;22.30;100.00;102291.78;4948596;29;20048;-49
2023/09/30 09:59:04;;;;;;;14.65;3.88;;;;;;;22.32;100.00;102292.13;4949628;29;20166;-48
2023/09/30 10:01:34;;;;;;;15.45;4.50;;;;;;;22.32;100.00;102292.13;4947932;29;20050;-46
2023/09/30 10:04:01;;;;;;;14.32;4.18;;;;;;;22.36;100.00;102289.94;4949737;29;20059;-50
2023/09/30 10:06:28;;;;;;;11.45;3.38;;;;;;;22.37;100.00;102300.03;4948223;29;20421;-47
2023/09/30 10:08:57;;;;;;;14.95;3.80;;;;;;;22.43;100.00;102298.16;4944938;28;20053;-46
2023/09/30 10:11:24;;;;;;;13.82;3.72;;;;;;;22.34;100.00;102296.06;4939951;29;20083;-45
2023/09/30 10:14:00;;;;;;;12.77;3.50;;;;;;;22.27;100.00;102301.97;4931894;29;20051;-46
2023/09/30 10:16:35;;;;;;;14.40;3.55;;;;;;;22.22;100.00;102311.06;4945289;29;20059;-46
2023/09/30 10:19:08;;;;;;;12.77;3.38;;;;;;;22.21;100.00;102311.53;4940950;28;20063;-47
2023/09/30 10:21:35;;;;;;;9.50;3.40;;;;;;;22.16;100.00;102304.41;4939778;28;20051;-46
2023/09/30 10:24:23;;;;;;;13.10;3.72;;;;;;;22.20;100.00;102298.63;4943603;29;20095;-46
2023/09/30 10:27:24;;;;;;;13.52;3.63;;;;;;;22.30;100.00;102292.56;4938937;29;20066;-47
2023/09/30 10:29:58;;;;;;;11.80;3.47;;;;;;;22.37;100.00;102300.03;4943954;29;20130;-47
2023/09/30 10:32:50;;;;;;;12.20;3.42;;;;;;;22.32;100.00;102314.78;4937639;28;20443;-48
2023/09/30 10:35:18;;;;;;;12.38;3.55;;;;;;;22.34;100.00;102317.97;4949293;29;20051;-47
2023/09/30 10:37:45;;;;;;;8.63;3.00;;;;;;;22.35;100.00;102319.53;4944709;29;20083;-48
2023/09/30 10:40:29;;;;;;;10.13;3.10;;;;;;;22.36;100.00;102321.09;4943868;29;20514;-46
2023/09/30 10:42:56;;;;;;;12.15;3.22;;;;;;;22.40;100.00;102319.72;4951078;28;20082;-39
2023/09/30 10:45:45;;;;;;;11.32;3.47;;;;;;;22.42;100.00;102320.06;4932333;29;20051;-40
2023/09/30 10:48:38;;;;;;;9.65;3.20;;;;;;;22.44;100.00;102322.44;4945229;29;20055;-39
2023/09/30 10:51:15;;;;;;;11.38;3.92;;;;;;;22.43;100.00;102327.31;4939674;28;20051;-41
2023/09/30 10:53:48;;;;;;;13.15;3.42;;;;;;;22.48;100.00;102328.75;4945350;28;20257;-38
2023/09/30 10:56:15;;;;;;;11.63;3.53;;;;;;;22.47;100.00;102315.84;4949253;29;20051;-44
2023/09/30 10:58:51;;;;;;;11.43;3.33;;;;;;;22.42;100.00;102313.59;4949949;29;20047;-41
2023/09/30 11:01:18;;;;;;;12.20;3.40;;;;;;;22.43;100.00;102307.47;4949201;29;20106;-40
2023/09/30 11:03:46;;;;;;;12.45;3.20;;;;;;;22.42;100.00;102297.41;4950740;29;21834;-39
2023/09/30 11:06:17;;;;;;;12.82;3.60;;;;;;;22.40;100.00;102299.91;4950373;28;20054;-39
2023/09/30 11:09:08;;;;;;;9.52;3.20;;;;;;;22.41;100.00;102292.97;4952007;29;20102;-40
2023/09/30 11:11:43;;;;;;;9.82;3.15;;;;;;;22.42;100.00;102300.22;4946248;29;20126;-40
2023/09/30 11:14:42;;;;;;;9.30;3.05;;;;;;;22.49;100.00;102297.13;4944389;28;20110;-40
2023/09/30 11:17:09;;;;;;;11.75;2.83;;;;;;;22.47;100.00;102296.78;4910093;29;20051;-39
2023/09/30 11:19:45;;;;;;;9.77;2.63;;;;;;;22.48;100.00;102289.09;4934482;28;20054;-39